sensor_id;sensor_type;location;lat;lon;timestamp;P1;durP1;ratioP1;P2;durP2;ratioP2
60030;SDS011;45901;47.600;9.890;2023-07-20T00:00:15;4.77;;;2.70;;
60030;SDS011;45901;47.600;9.890;2023-07-20T00:02:43;3.77;;;2.20;;
60030;SDS011;45901;47.600;9.890;2023-07-20T00:05:10;5.37;;;2.63;;
60030;SDS011;45901;47.600;9.890;2023-07-20T00:07:37;5.83;;;2.33;;
60030;SDS011;45901;47.600;9.890;2023-07-20T00:10:04;7.80;;;3.13;;
60030;SDS011;45901;47.600;9.890;2023-07-20T00:12:32;6.13;;;2.30;;
60030;SDS011;45901;47.600;9.890;2023-07-20T00:14:59;4.87;;;2.50;;
60030;SDS011;45901;47.600;9.890;2023-07-20T00:17:28;4.27;;;2.50;;
60030;SDS011;45901;47.600;9.890;2023-07-20T00:19:55;6.67;;;2.47;;
60030;SDS011;45901;47.600;9.890;2023-07-20T00:22:22;3.40;;;2.27;;
60030;SDS011;45901;47.600;9.890;2023-07-20T00:24:49;8.63;;;2.73;;
60030;SDS011;45901;47.600;9.890;2023-07-20T00:27:16;7.83;;;2.80;;
60030;SDS011;45901;47.600;9.890;2023-07-20T00:29:43;4.83;;;2.53;;
60030;SDS011;45901;47.600;9.890;2023-07-20T00:32:10;6.10;;;2.80;;
60030;SDS011;45901;47.600;9.890;2023-07-20T00:34:38;5.10;;;2.77;;
60030;SDS011;45901;47.600;9.890;2023-07-20T00:37:05;11.07;;;2.97;;
60030;SDS011;45901;47.600;9.890;2023-07-20T00:39:33;8.60;;;2.70;;
60030;SDS011;45901;47.600;9.890;2023-07-20T00:41:59;6.20;;;2.70;;
60030;SDS011;45901;47.600;9.890;2023-07-20T00:44:26;4.30;;;2.43;;
60030;SDS011;45901;47.600;9.890;2023-07-20T00:46:54;8.07;;;2.80;;
60030;SDS011;45901;47.600;9.890;2023-07-20T00:49:22;5.70;;;2.00;;
60030;SDS011;45901;47.600;9.890;2023-07-20T00:51:51;7.10;;;2.40;;
60030;SDS011;45901;47.600;9.890;2023-07-20T00:54:18;3.87;;;2.07;;
60030;SDS011;45901;47.600;9.890;2023-07-20T00:56:45;4.77;;;2.03;;
60030;SDS011;45901;47.600;9.890;2023-07-20T00:59:13;5.07;;;1.80;;
60030;SDS011;45901;47.600;9.890;2023-07-20T01:01:40;3.17;;;2.00;;
60030;SDS011;45901;47.600;9.890;2023-07-20T01:04:07;4.30;;;1.50;;
60030;SDS011;45901;47.600;9.890;2023-07-20T01:06:36;3.33;;;1.57;;
60030;SDS011;45901;47.600;9.890;2023-07-20T01:09:17;3.73;;;1.93;;
60030;SDS011;45901;47.600;9.890;2023-07-20T01:11:52;5.03;;;1.80;;
60030;SDS011;45901;47.600;9.890;2023-07-20T01:14:25;4.10;;;1.70;;
60030;SDS011;45901;47.600;9.890;2023-07-20T01:16:53;6.20;;;1.50;;
60030;SDS011;45901;47.600;9.890;2023-07-20T01:19:20;3.17;;;1.57;;
60030;SDS011;45901;47.600;9.890;2023-07-20T01:21:48;6.03;;;1.60;;
60030;SDS011;45901;47.600;9.890;2023-07-20T01:24:35;3.90;;;1.87;;
60030;SDS011;45901;47.600;9.890;2023-07-20T01:33:21;2.97;;;1.50;;
60030;SDS011;45901;47.600;9.890;2023-07-20T01:35:52;5.70;;;1.47;;
60030;SDS011;45901;47.600;9.890;2023-07-20T01:38:21;3.43;;;1.30;;
60030;SDS011;45901;47.600;9.890;2023-07-20T01:40:50;4.47;;;1.33;;
60030;SDS011;45901;47.600;9.890;2023-07-20T01:43:18;5.47;;;1.47;;
60030;SDS011;45901;47.600;9.890;2023-07-20T01:45:45;9.00;;;1.30;;
60030;SDS011;45901;47.600;9.890;2023-07-20T01:48:12;5.43;;;1.63;;
60030;SDS011;45901;47.600;9.890;2023-07-20T01:50:40;4.57;;;1.53;;
60030;SDS011;45901;47.600;9.890;2023-07-20T01:53:07;6.30;;;1.57;;
60030;SDS011;45901;47.600;9.890;2023-07-20T01:55:34;4.47;;;1.20;;
60030;SDS011;45901;47.600;9.890;2023-07-20T01:58:01;7.10;;;1.70;;
60030;SDS011;45901;47.600;9.890;2023-07-20T02:00:28;2.87;;;1.10;;
60030;SDS011;45901;47.600;9.890;2023-07-20T02:02:55;6.93;;;1.60;;
60030;SDS011;45901;47.600;9.890;2023-07-20T02:05:22;5.47;;;1.67;;
60030;SDS011;45901;47.600;9.890;2023-07-20T02:07:51;4.13;;;1.57;;
60030;SDS011;45901;47.600;9.890;2023-07-20T02:10:18;3.57;;;1.40;;
60030;SDS011;45901;47.600;9.890;2023-07-20T02:12:45;5.97;;;1.17;;
60030;SDS011;45901;47.600;9.890;2023-07-20T02:15:12;4.57;;;1.43;;
60030;SDS011;45901;47.600;9.890;2023-07-20T02:17:41;4.37;;;1.53;;
60030;SDS011;45901;47.600;9.890;2023-07-20T02:20:08;3.47;;;1.30;;
60030;SDS011;45901;47.600;9.890;2023-07-20T02:22:36;5.17;;;1.40;;
60030;SDS011;45901;47.600;9.890;2023-07-20T02:25:05;4.37;;;1.27;;
60030;SDS011;45901;47.600;9.890;2023-07-20T02:27:34;5.33;;;1.30;;
60030;SDS011;45901;47.600;9.890;2023-07-20T02:30:01;3.67;;;1.40;;
60030;SDS011;45901;47.600;9.890;2023-07-20T02:32:29;3.87;;;1.40;;
60030;SDS011;45901;47.600;9.890;2023-07-20T02:34:57;4.80;;;1.20;;
60030;SDS011;45901;47.600;9.890;2023-07-20T02:37:24;3.57;;;1.20;;
60030;SDS011;45901;47.600;9.890;2023-07-20T02:39:52;3.00;;;1.33;;
60030;SDS011;45901;47.600;9.890;2023-07-20T02:42:20;2.83;;;1.20;;
60030;SDS011;45901;47.600;9.890;2023-07-20T02:44:49;7.47;;;1.47;;
60030;SDS011;45901;47.600;9.890;2023-07-20T02:47:16;3.37;;;1.50;;
60030;SDS011;45901;47.600;9.890;2023-07-20T02:49:43;4.13;;;1.57;;
60030;SDS011;45901;47.600;9.890;2023-07-20T02:52:10;3.20;;;1.33;;
60030;SDS011;45901;47.600;9.890;2023-07-20T02:54:37;5.27;;;1.60;;
60030;SDS011;45901;47.600;9.890;2023-07-20T02:57:04;4.97;;;1.80;;
60030;SDS011;45901;47.600;9.890;2023-07-20T02:59:33;2.73;;;1.10;;
60030;SDS011;45901;47.600;9.890;2023-07-20T03:02:00;3.97;;;1.20;;
60030;SDS011;45901;47.600;9.890;2023-07-20T03:04:32;10.33;;;1.53;;
60030;SDS011;45901;47.600;9.890;2023-07-20T03:06:59;3.90;;;1.90;;
60030;SDS011;45901;47.600;9.890;2023-07-20T03:09:26;3.77;;;1.03;;
60030;SDS011;45901;47.600;9.890;2023-07-20T03:11:54;4.67;;;1.60;;
60030;SDS011;45901;47.600;9.890;2023-07-20T03:14:21;4.60;;;1.63;;
60030;SDS011;45901;47.600;9.890;2023-07-20T03:16:50;3.27;;;1.37;;
60030;SDS011;45901;47.600;9.890;2023-07-20T03:19:17;4.10;;;1.50;;
60030;SDS011;45901;47.600;9.890;2023-07-20T03:21:44;4.67;;;1.40;;
60030;SDS011;45901;47.600;9.890;2023-07-20T03:24:11;4.57;;;1.47;;
60030;SDS011;45901;47.600;9.890;2023-07-20T03:26:38;4.73;;;1.70;;
60030;SDS011;45901;47.600;9.890;2023-07-20T03:29:05;7.67;;;1.67;;
60030;SDS011;45901;47.600;9.890;2023-07-20T03:31:32;5.17;;;1.60;;
60030;SDS011;45901;47.600;9.890;2023-07-20T03:34:00;2.80;;;1.23;;
60030;SDS011;45901;47.600;9.890;2023-07-20T03:36:27;3.93;;;1.23;;
60030;SDS011;45901;47.600;9.890;2023-07-20T03:38:54;7.20;;;1.67;;
60030;SDS011;45901;47.600;9.890;2023-07-20T03:41:21;5.47;;;1.57;;
60030;SDS011;45901;47.600;9.890;2023-07-20T03:43:48;4.40;;;1.63;;
60030;SDS011;45901;47.600;9.890;2023-07-20T03:46:15;4.83;;;1.47;;
60030;SDS011;45901;47.600;9.890;2023-07-20T03:48:42;4.53;;;1.23;;
60030;SDS011;45901;47.600;9.890;2023-07-20T03:51:10;4.00;;;1.77;;
60030;SDS011;45901;47.600;9.890;2023-07-20T03:53:37;4.93;;;1.33;;
60030;SDS011;45901;47.600;9.890;2023-07-20T03:56:04;7.23;;;1.93;;
60030;SDS011;45901;47.600;9.890;2023-07-20T03:58:31;6.93;;;1.70;;
60030;SDS011;45901;47.600;9.890;2023-07-20T04:00:58;6.90;;;1.50;;
60030;SDS011;45901;47.600;9.890;2023-07-20T04:03:25;2.47;;;1.10;;
60030;SDS011;45901;47.600;9.890;2023-07-20T04:05:53;5.37;;;1.47;;
60030;SDS011;45901;47.600;9.890;2023-07-20T04:08:22;5.00;;;1.70;;
60030;SDS011;45901;47.600;9.890;2023-07-20T04:10:50;5.63;;;1.40;;
60030;SDS011;45901;47.600;9.890;2023-07-20T04:13:17;9.70;;;1.63;;
60030;SDS011;45901;47.600;9.890;2023-07-20T04:15:44;5.00;;;1.50;;
60030;SDS011;45901;47.600;9.890;2023-07-20T04:18:11;7.97;;;1.87;;
60030;SDS011;45901;47.600;9.890;2023-07-20T04:20:38;5.67;;;1.80;;
60030;SDS011;45901;47.600;9.890;2023-07-20T04:23:05;6.33;;;1.50;;
60030;SDS011;45901;47.600;9.890;2023-07-20T04:25:33;4.27;;;1.90;;
60030;SDS011;45901;47.600;9.890;2023-07-20T04:28:04;4.17;;;1.53;;
60030;SDS011;45901;47.600;9.890;2023-07-20T04:30:34;4.63;;;1.60;;
60030;SDS011;45901;47.600;9.890;2023-07-20T04:33:01;1.93;;;1.27;;
60030;SDS011;45901;47.600;9.890;2023-07-20T04:35:48;3.07;;;1.27;;
60030;SDS011;45901;47.600;9.890;2023-07-20T04:38:17;5.03;;;1.77;;
60030;SDS011;45901;47.600;9.890;2023-07-20T04:40:46;5.77;;;1.57;;
60030;SDS011;45901;47.600;9.890;2023-07-20T04:43:15;3.33;;;1.70;;
60030;SDS011;45901;47.600;9.890;2023-07-20T04:45:43;3.47;;;1.37;;
60030;SDS011;45901;47.600;9.890;2023-07-20T04:48:11;6.33;;;2.00;;
60030;SDS011;45901;47.600;9.890;2023-07-20T04:50:40;6.70;;;1.87;;
60030;SDS011;45901;47.600;9.890;2023-07-20T04:53:09;6.03;;;2.17;;
60030;SDS011;45901;47.600;9.890;2023-07-20T04:55:37;4.33;;;1.90;;
60030;SDS011;45901;47.600;9.890;2023-07-20T04:58:04;5.53;;;1.70;;
60030;SDS011;45901;47.600;9.890;2023-07-20T05:00:32;7.87;;;2.03;;
60030;SDS011;45901;47.600;9.890;2023-07-20T05:03:00;4.73;;;1.60;;
60030;SDS011;45901;47.600;9.890;2023-07-20T05:05:27;3.67;;;1.43;;
60030;SDS011;45901;47.600;9.890;2023-07-20T05:07:54;6.03;;;1.33;;
60030;SDS011;45901;47.600;9.890;2023-07-20T05:10:21;4.13;;;1.40;;
60030;SDS011;45901;47.600;9.890;2023-07-20T05:12:48;4.70;;;1.50;;
60030;SDS011;45901;47.600;9.890;2023-07-20T05:15:16;4.30;;;1.70;;
60030;SDS011;45901;47.600;9.890;2023-07-20T05:17:43;4.80;;;1.90;;
60030;SDS011;45901;47.600;9.890;2023-07-20T05:20:10;5.57;;;1.70;;
60030;SDS011;45901;47.600;9.890;2023-07-20T05:22:38;5.40;;;1.70;;
60030;SDS011;45901;47.600;9.890;2023-07-20T05:25:06;4.30;;;1.57;;
60030;SDS011;45901;47.600;9.890;2023-07-20T05:27:34;4.57;;;1.73;;
60030;SDS011;45901;47.600;9.890;2023-07-20T05:30:03;3.93;;;1.57;;
60030;SDS011;45901;47.600;9.890;2023-07-20T05:32:33;5.00;;;1.73;;
60030;SDS011;45901;47.600;9.890;2023-07-20T05:35:00;2.30;;;1.37;;
60030;SDS011;45901;47.600;9.890;2023-07-20T05:37:28;9.80;;;2.30;;
60030;SDS011;45901;47.600;9.890;2023-07-20T05:39:55;6.07;;;1.67;;
60030;SDS011;45901;47.600;9.890;2023-07-20T05:42:23;4.50;;;1.73;;
60030;SDS011;45901;47.600;9.890;2023-07-20T05:44:51;6.97;;;1.50;;
60030;SDS011;45901;47.600;9.890;2023-07-20T05:47:19;3.40;;;1.80;;
60030;SDS011;45901;47.600;9.890;2023-07-20T05:49:48;4.73;;;1.90;;
60030;SDS011;45901;47.600;9.890;2023-07-20T05:52:15;4.30;;;1.50;;
60030;SDS011;45901;47.600;9.890;2023-07-20T05:54:42;5.77;;;2.07;;
60030;SDS011;45901;47.600;9.890;2023-07-20T05:57:09;6.33;;;2.60;;
60030;SDS011;45901;47.600;9.890;2023-07-20T05:59:36;7.30;;;2.07;;
60030;SDS011;45901;47.600;9.890;2023-07-20T06:02:03;3.93;;;2.03;;
60030;SDS011;45901;47.600;9.890;2023-07-20T06:04:31;3.40;;;1.80;;
60030;SDS011;45901;47.600;9.890;2023-07-20T06:06:59;3.67;;;2.20;;
60030;SDS011;45901;47.600;9.890;2023-07-20T06:09:26;4.13;;;1.90;;
60030;SDS011;45901;47.600;9.890;2023-07-20T06:11:54;5.50;;;1.60;;
60030;SDS011;45901;47.600;9.890;2023-07-20T06:14:21;7.80;;;1.90;;
60030;SDS011;45901;47.600;9.890;2023-07-20T06:16:49;5.67;;;2.00;;
60030;SDS011;45901;47.600;9.890;2023-07-20T06:19:16;4.87;;;1.70;;
60030;SDS011;45901;47.600;9.890;2023-07-20T06:21:43;4.93;;;2.20;;
60030;SDS011;45901;47.600;9.890;2023-07-20T06:24:11;3.33;;;1.50;;
60030;SDS011;45901;47.600;9.890;2023-07-20T06:26:38;4.53;;;2.07;;
60030;SDS011;45901;47.600;9.890;2023-07-20T06:29:06;5.00;;;2.03;;
60030;SDS011;45901;47.600;9.890;2023-07-20T06:31:34;4.67;;;1.90;;
60030;SDS011;45901;47.600;9.890;2023-07-20T06:34:01;5.63;;;2.50;;
60030;SDS011;45901;47.600;9.890;2023-07-20T06:36:28;7.90;;;2.37;;
60030;SDS011;45901;47.600;9.890;2023-07-20T06:38:55;6.57;;;2.70;;
60030;SDS011;45901;47.600;9.890;2023-07-20T06:41:24;8.57;;;2.20;;
60030;SDS011;45901;47.600;9.890;2023-07-20T06:43:51;5.00;;;2.10;;
60030;SDS011;45901;47.600;9.890;2023-07-20T06:46:23;5.70;;;2.20;;
60030;SDS011;45901;47.600;9.890;2023-07-20T06:48:51;5.07;;;2.17;;
60030;SDS011;45901;47.600;9.890;2023-07-20T06:51:19;6.07;;;2.20;;
60030;SDS011;45901;47.600;9.890;2023-07-20T06:53:47;4.53;;;2.00;;
60030;SDS011;45901;47.600;9.890;2023-07-20T06:56:14;4.40;;;2.00;;
60030;SDS011;45901;47.600;9.890;2023-07-20T06:58:42;7.17;;;2.73;;
60030;SDS011;45901;47.600;9.890;2023-07-20T07:01:09;4.53;;;2.03;;
60030;SDS011;45901;47.600;9.890;2023-07-20T07:03:36;5.27;;;2.17;;
60030;SDS011;45901;47.600;9.890;2023-07-20T07:06:03;9.13;;;2.10;;
60030;SDS011;45901;47.600;9.890;2023-07-20T07:08:30;5.47;;;2.10;;
60030;SDS011;45901;47.600;9.890;2023-07-20T07:10:57;6.07;;;2.30;;
60030;SDS011;45901;47.600;9.890;2023-07-20T07:13:24;10.67;;;1.97;;
60030;SDS011;45901;47.600;9.890;2023-07-20T07:15:52;4.37;;;1.90;;
60030;SDS011;45901;47.600;9.890;2023-07-20T07:18:19;5.73;;;2.10;;
60030;SDS011;45901;47.600;9.890;2023-07-20T07:20:50;4.07;;;1.80;;
60030;SDS011;45901;47.600;9.890;2023-07-20T07:23:18;3.93;;;1.63;;
60030;SDS011;45901;47.600;9.890;2023-07-20T07:25:45;6.17;;;1.80;;
60030;SDS011;45901;47.600;9.890;2023-07-20T07:28:12;4.33;;;1.70;;
60030;SDS011;45901;47.600;9.890;2023-07-20T07:30:39;3.93;;;1.87;;
60030;SDS011;45901;47.600;9.890;2023-07-20T07:33:08;6.13;;;1.90;;
60030;SDS011;45901;47.600;9.890;2023-07-20T07:35:36;3.87;;;1.77;;
60030;SDS011;45901;47.600;9.890;2023-07-20T07:38:03;6.60;;;1.77;;
60030;SDS011;45901;47.600;9.890;2023-07-20T07:40:31;5.50;;;1.80;;
60030;SDS011;45901;47.600;9.890;2023-07-20T07:42:58;8.70;;;2.30;;
60030;SDS011;45901;47.600;9.890;2023-07-20T07:45:25;5.50;;;2.00;;
60030;SDS011;45901;47.600;9.890;2023-07-20T07:47:52;6.63;;;2.10;;
60030;SDS011;45901;47.600;9.890;2023-07-20T07:50:20;4.90;;;2.33;;
60030;SDS011;45901;47.600;9.890;2023-07-20T07:52:48;5.10;;;1.90;;
60030;SDS011;45901;47.600;9.890;2023-07-20T07:55:15;5.57;;;2.57;;
60030;SDS011;45901;47.600;9.890;2023-07-20T07:57:42;5.23;;;1.80;;
60030;SDS011;45901;47.600;9.890;2023-07-20T08:00:10;6.60;;;1.73;;
60030;SDS011;45901;47.600;9.890;2023-07-20T08:02:40;4.50;;;2.00;;
60030;SDS011;45901;47.600;9.890;2023-07-20T08:05:08;5.43;;;2.20;;
60030;SDS011;45901;47.600;9.890;2023-07-20T08:07:36;2.90;;;1.90;;
60030;SDS011;45901;47.600;9.890;2023-07-20T08:10:04;6.90;;;1.90;;
60030;SDS011;45901;47.600;9.890;2023-07-20T08:12:32;3.50;;;1.90;;
60030;SDS011;45901;47.600;9.890;2023-07-20T08:14:59;4.77;;;2.10;;
60030;SDS011;45901;47.600;9.890;2023-07-20T08:17:26;3.33;;;1.63;;
60030;SDS011;45901;47.600;9.890;2023-07-20T08:19:53;4.57;;;1.80;;
60030;SDS011;45901;47.600;9.890;2023-07-20T08:22:20;4.53;;;1.90;;
60030;SDS011;45901;47.600;9.890;2023-07-20T08:24:49;7.03;;;1.80;;
60030;SDS011;45901;47.600;9.890;2023-07-20T08:27:15;5.73;;;2.20;;
60030;SDS011;45901;47.600;9.890;2023-07-20T08:29:42;3.57;;;1.57;;
60030;SDS011;45901;47.600;9.890;2023-07-20T08:32:09;4.97;;;1.90;;
60030;SDS011;45901;47.600;9.890;2023-07-20T08:34:38;4.23;;;1.90;;
60030;SDS011;45901;47.600;9.890;2023-07-20T08:37:05;4.73;;;2.27;;
60030;SDS011;45901;47.600;9.890;2023-07-20T08:39:35;6.10;;;2.10;;
60030;SDS011;45901;47.600;9.890;2023-07-20T08:42:03;6.57;;;2.57;;
60030;SDS011;45901;47.600;9.890;2023-07-20T08:44:32;6.60;;;2.33;;
60030;SDS011;45901;47.600;9.890;2023-07-20T08:47:00;4.13;;;1.90;;
60030;SDS011;45901;47.600;9.890;2023-07-20T08:49:29;4.33;;;1.97;;
60030;SDS011;45901;47.600;9.890;2023-07-20T08:51:57;5.93;;;2.00;;
60030;SDS011;45901;47.600;9.890;2023-07-20T08:54:25;7.17;;;2.07;;
60030;SDS011;45901;47.600;9.890;2023-07-20T08:56:59;5.17;;;1.80;;
60030;SDS011;45901;47.600;9.890;2023-07-20T08:59:31;4.83;;;2.10;;
60030;SDS011;45901;47.600;9.890;2023-07-20T09:02:00;5.70;;;2.13;;
60030;SDS011;45901;47.600;9.890;2023-07-20T09:04:28;7.93;;;2.40;;
60030;SDS011;45901;47.600;9.890;2023-07-20T09:06:55;3.00;;;1.73;;
60030;SDS011;45901;47.600;9.890;2023-07-20T09:09:23;4.13;;;2.20;;
60030;SDS011;45901;47.600;9.890;2023-07-20T09:11:50;7.60;;;2.23;;
60030;SDS011;45901;47.600;9.890;2023-07-20T09:14:19;3.17;;;2.00;;
60030;SDS011;45901;47.600;9.890;2023-07-20T09:16:50;8.27;;;1.90;;
60030;SDS011;45901;47.600;9.890;2023-07-20T09:19:19;4.70;;;2.10;;
60030;SDS011;45901;47.600;9.890;2023-07-20T09:21:47;5.50;;;2.23;;
60030;SDS011;45901;47.600;9.890;2023-07-20T09:24:16;4.03;;;2.00;;
60030;SDS011;45901;47.600;9.890;2023-07-20T09:26:45;6.30;;;2.13;;
60030;SDS011;45901;47.600;9.890;2023-07-20T09:29:19;5.20;;;2.30;;
60030;SDS011;45901;47.600;9.890;2023-07-20T09:31:58;7.07;;;2.30;;
60030;SDS011;45901;47.600;9.890;2023-07-20T09:34:26;7.97;;;2.37;;
60030;SDS011;45901;47.600;9.890;2023-07-20T09:36:55;10.17;;;2.73;;
60030;SDS011;45901;47.600;9.890;2023-07-20T09:39:22;5.67;;;2.23;;
60030;SDS011;45901;47.600;9.890;2023-07-20T09:41:49;6.97;;;2.03;;
60030;SDS011;45901;47.600;9.890;2023-07-20T09:44:19;6.43;;;2.50;;
60030;SDS011;45901;47.600;9.890;2023-07-20T09:46:46;5.23;;;2.00;;
60030;SDS011;45901;47.600;9.890;2023-07-20T09:49:14;5.57;;;2.00;;
60030;SDS011;45901;47.600;9.890;2023-07-20T09:51:43;6.50;;;2.00;;
60030;SDS011;45901;47.600;9.890;2023-07-20T09:54:12;3.03;;;2.10;;
60030;SDS011;45901;47.600;9.890;2023-07-20T09:56:39;4.17;;;2.40;;
60030;SDS011;45901;47.600;9.890;2023-07-20T09:59:08;7.43;;;2.13;;
60030;SDS011;45901;47.600;9.890;2023-07-20T10:01:36;4.93;;;1.67;;
60030;SDS011;45901;47.600;9.890;2023-07-20T10:04:09;8.40;;;2.10;;
60030;SDS011;45901;47.600;9.890;2023-07-20T10:06:39;6.10;;;1.77;;
60030;SDS011;45901;47.600;9.890;2023-07-20T10:09:09;7.40;;;1.90;;
60030;SDS011;45901;47.600;9.890;2023-07-20T10:11:40;3.47;;;1.60;;
60030;SDS011;45901;47.600;9.890;2023-07-20T10:14:16;6.47;;;2.10;;
60030;SDS011;45901;47.600;9.890;2023-07-20T10:16:50;9.37;;;1.90;;
60030;SDS011;45901;47.600;9.890;2023-07-20T10:19:21;5.90;;;1.67;;
60030;SDS011;45901;47.600;9.890;2023-07-20T10:22:00;3.50;;;1.50;;
60030;SDS011;45901;47.600;9.890;2023-07-20T10:24:36;5.13;;;2.07;;
60030;SDS011;45901;47.600;9.890;2023-07-20T10:27:05;2.17;;;1.40;;
60030;SDS011;45901;47.600;9.890;2023-07-20T10:29:32;6.53;;;1.60;;
60030;SDS011;45901;47.600;9.890;2023-07-20T10:32:01;5.43;;;1.90;;
60030;SDS011;45901;47.600;9.890;2023-07-20T10:34:28;5.07;;;1.57;;
60030;SDS011;45901;47.600;9.890;2023-07-20T10:36:55;4.93;;;1.60;;
60030;SDS011;45901;47.600;9.890;2023-07-20T10:39:23;4.60;;;1.57;;
60030;SDS011;45901;47.600;9.890;2023-07-20T10:41:59;4.57;;;1.33;;
60030;SDS011;45901;47.600;9.890;2023-07-20T10:44:28;3.03;;;1.77;;
60030;SDS011;45901;47.600;9.890;2023-07-20T10:46:58;4.97;;;1.97;;
60030;SDS011;45901;47.600;9.890;2023-07-20T10:49:32;4.90;;;1.97;;
60030;SDS011;45901;47.600;9.890;2023-07-20T10:52:03;1.90;;;1.50;;
60030;SDS011;45901;47.600;9.890;2023-07-20T10:54:34;4.83;;;1.80;;
60030;SDS011;45901;47.600;9.890;2023-07-20T10:57:24;4.27;;;1.70;;
60030;SDS011;45901;47.600;9.890;2023-07-20T11:00:11;4.83;;;1.57;;
60030;SDS011;45901;47.600;9.890;2023-07-20T11:02:45;6.07;;;1.87;;
60030;SDS011;45901;47.600;9.890;2023-07-20T11:08:06;4.88;;;1.70;;
60030;SDS011;45901;47.600;9.890;2023-07-20T11:10:37;3.30;;;1.70;;
60030;SDS011;45901;47.600;9.890;2023-07-20T11:13:18;5.28;;;1.80;;
60030;SDS011;45901;47.600;9.890;2023-07-20T11:15:48;3.50;;;1.90;;
60030;SDS011;45901;47.600;9.890;2023-07-20T11:18:30;5.68;;;1.73;;
60030;SDS011;45901;47.600;9.890;2023-07-20T11:21:06;4.25;;;1.83;;
60030;SDS011;45901;47.600;9.890;2023-07-20T11:23:38;6.70;;;2.25;;
60030;SDS011;45901;47.600;9.890;2023-07-20T11:26:05;4.95;;;2.30;;
60030;SDS011;45901;47.600;9.890;2023-07-20T11:28:33;3.70;;;1.77;;
60030;SDS011;45901;47.600;9.890;2023-07-20T11:31:01;3.58;;;1.98;;
60030;SDS011;45901;47.600;9.890;2023-07-20T11:33:28;4.30;;;1.92;;
60030;SDS011;45901;47.600;9.890;2023-07-20T11:35:56;7.80;;;2.10;;
60030;SDS011;45901;47.600;9.890;2023-07-20T11:38:23;4.63;;;1.83;;
60030;SDS011;45901;47.600;9.890;2023-07-20T11:40:50;7.10;;;2.08;;
60030;SDS011;45901;47.600;9.890;2023-07-20T11:43:17;6.93;;;1.95;;
60030;SDS011;45901;47.600;9.890;2023-07-20T11:45:46;2.90;;;1.70;;
60030;SDS011;45901;47.600;9.890;2023-07-20T11:48:16;5.78;;;1.52;;
60030;SDS011;45901;47.600;9.890;2023-07-20T11:50:43;6.68;;;1.98;;
60030;SDS011;45901;47.600;9.890;2023-07-20T11:53:12;4.75;;;1.83;;
60030;SDS011;45901;47.600;9.890;2023-07-20T11:55:40;5.70;;;2.00;;
60030;SDS011;45901;47.600;9.890;2023-07-20T11:58:07;4.93;;;2.03;;
60030;SDS011;45901;47.600;9.890;2023-07-20T12:00:36;4.93;;;2.33;;
60030;SDS011;45901;47.600;9.890;2023-07-20T12:03:05;3.97;;;1.80;;
60030;SDS011;45901;47.600;9.890;2023-07-20T12:05:33;2.70;;;1.73;;
60030;SDS011;45901;47.600;9.890;2023-07-20T12:08:00;4.43;;;1.75;;
60030;SDS011;45901;47.600;9.890;2023-07-20T12:10:29;6.30;;;1.70;;
60030;SDS011;45901;47.600;9.890;2023-07-20T12:13:00;4.05;;;2.08;;
60030;SDS011;45901;47.600;9.890;2023-07-20T12:15:29;6.13;;;2.08;;
60030;SDS011;45901;47.600;9.890;2023-07-20T12:17:57;5.78;;;2.60;;
60030;SDS011;45901;47.600;9.890;2023-07-20T12:20:26;2.13;;;1.58;;
60030;SDS011;45901;47.600;9.890;2023-07-20T12:22:56;3.95;;;2.20;;
60030;SDS011;45901;47.600;9.890;2023-07-20T12:25:33;4.50;;;1.95;;
60030;SDS011;45901;47.600;9.890;2023-07-20T12:28:04;3.35;;;1.80;;
60030;SDS011;45901;47.600;9.890;2023-07-20T12:30:32;6.20;;;2.10;;
60030;SDS011;45901;47.600;9.890;2023-07-20T12:32:59;5.43;;;1.92;;
60030;SDS011;45901;47.600;9.890;2023-07-20T12:35:28;5.32;;;2.47;;
60030;SDS011;45901;47.600;9.890;2023-07-20T12:37:56;7.88;;;2.13;;
60030;SDS011;45901;47.600;9.890;2023-07-20T12:40:23;5.07;;;2.17;;
60030;SDS011;45901;47.600;9.890;2023-07-20T12:42:52;5.05;;;2.30;;
60030;SDS011;45901;47.600;9.890;2023-07-20T12:45:19;5.35;;;2.33;;
60030;SDS011;45901;47.600;9.890;2023-07-20T12:47:47;7.55;;;2.00;;
60030;SDS011;45901;47.600;9.890;2023-07-20T12:50:14;3.38;;;1.98;;
60030;SDS011;45901;47.600;9.890;2023-07-20T12:52:41;5.47;;;1.90;;
60030;SDS011;45901;47.600;9.890;2023-07-20T12:55:08;3.03;;;2.10;;
60030;SDS011;45901;47.600;9.890;2023-07-20T12:57:36;3.22;;;2.08;;
60030;SDS011;45901;47.600;9.890;2023-07-20T13:00:06;7.05;;;2.63;;
60030;SDS011;45901;47.600;9.890;2023-07-20T13:02:37;5.70;;;2.35;;
60030;SDS011;45901;47.600;9.890;2023-07-20T13:05:05;4.60;;;2.38;;
60030;SDS011;45901;47.600;9.890;2023-07-20T13:07:33;3.92;;;2.30;;
60030;SDS011;45901;47.600;9.890;2023-07-20T13:10:03;5.03;;;2.03;;
60030;SDS011;45901;47.600;9.890;2023-07-20T13:12:31;6.40;;;2.00;;
60030;SDS011;45901;47.600;9.890;2023-07-20T13:15:00;5.13;;;2.10;;
60030;SDS011;45901;47.600;9.890;2023-07-20T13:17:32;3.58;;;1.92;;
60030;SDS011;45901;47.600;9.890;2023-07-20T13:19:59;3.67;;;2.08;;
60030;SDS011;45901;47.600;9.890;2023-07-20T13:22:26;4.60;;;2.47;;
60030;SDS011;45901;47.600;9.890;2023-07-20T13:24:53;5.05;;;2.28;;
60030;SDS011;45901;47.600;9.890;2023-07-20T13:27:20;7.13;;;2.22;;
60030;SDS011;45901;47.600;9.890;2023-07-20T13:29:47;5.47;;;2.45;;
60030;SDS011;45901;47.600;9.890;2023-07-20T13:32:15;4.65;;;2.22;;
60030;SDS011;45901;47.600;9.890;2023-07-20T13:34:44;2.88;;;1.85;;
60030;SDS011;45901;47.600;9.890;2023-07-20T13:37:12;4.45;;;2.30;;
60030;SDS011;45901;47.600;9.890;2023-07-20T13:39:39;4.25;;;2.03;;
60030;SDS011;45901;47.600;9.890;2023-07-20T13:42:06;4.47;;;2.30;;
60030;SDS011;45901;47.600;9.890;2023-07-20T13:44:36;5.25;;;2.22;;
60030;SDS011;45901;47.600;9.890;2023-07-20T13:47:03;2.78;;;2.10;;
60030;SDS011;45901;47.600;9.890;2023-07-20T13:49:31;5.43;;;2.17;;
60030;SDS011;45901;47.600;9.890;2023-07-20T13:51:59;6.85;;;2.30;;
60030;SDS011;45901;47.600;9.890;2023-07-20T13:54:27;6.00;;;2.22;;
60030;SDS011;45901;47.600;9.890;2023-07-20T13:56:54;3.20;;;2.00;;
60030;SDS011;45901;47.600;9.890;2023-07-20T13:59:21;4.10;;;2.08;;
60030;SDS011;45901;47.600;9.890;2023-07-20T14:01:49;6.38;;;2.83;;
60030;SDS011;45901;47.600;9.890;2023-07-20T14:04:16;3.97;;;2.20;;
60030;SDS011;45901;47.600;9.890;2023-07-20T14:06:43;4.53;;;2.17;;
60030;SDS011;45901;47.600;9.890;2023-07-20T14:09:11;2.97;;;1.85;;
60030;SDS011;45901;47.600;9.890;2023-07-20T14:11:38;8.00;;;2.33;;
60030;SDS011;45901;47.600;9.890;2023-07-20T14:14:05;6.03;;;1.90;;
60030;SDS011;45901;47.600;9.890;2023-07-20T14:16:32;3.00;;;1.70;;
60030;SDS011;45901;47.600;9.890;2023-07-20T14:18:59;4.13;;;2.00;;
60030;SDS011;45901;47.600;9.890;2023-07-20T14:21:26;7.78;;;2.05;;
60030;SDS011;45901;47.600;9.890;2023-07-20T14:23:53;4.95;;;2.40;;
60030;SDS011;45901;47.600;9.890;2023-07-20T14:26:22;4.60;;;2.20;;
60030;SDS011;45901;47.600;9.890;2023-07-20T14:28:49;3.60;;;1.90;;
60030;SDS011;45901;47.600;9.890;2023-07-20T14:31:16;4.78;;;1.92;;
60030;SDS011;45901;47.600;9.890;2023-07-20T14:33:43;7.60;;;2.00;;
60030;SDS011;45901;47.600;9.890;2023-07-20T14:36:10;3.60;;;1.83;;
60030;SDS011;45901;47.600;9.890;2023-07-20T14:38:36;3.13;;;1.83;;
60030;SDS011;45901;47.600;9.890;2023-07-20T14:41:03;3.28;;;1.92;;
60030;SDS011;45901;47.600;9.890;2023-07-20T14:43:32;2.72;;;2.00;;
60030;SDS011;45901;47.600;9.890;2023-07-20T14:45:59;4.25;;;1.60;;
60030;SDS011;45901;47.600;9.890;2023-07-20T14:48:26;4.70;;;1.90;;
60030;SDS011;45901;47.600;9.890;2023-07-20T14:50:53;6.25;;;2.38;;
60030;SDS011;45901;47.600;9.890;2023-07-20T14:53:20;6.72;;;1.90;;
60030;SDS011;45901;47.600;9.890;2023-07-20T14:55:47;3.83;;;1.80;;
60030;SDS011;45901;47.600;9.890;2023-07-20T14:58:14;3.70;;;2.08;;
60030;SDS011;45901;47.600;9.890;2023-07-20T15:00:43;3.20;;;2.20;;
60030;SDS011;45901;47.600;9.890;2023-07-20T15:03:10;5.40;;;1.88;;